Impacts METAR Board
IDs:

KTME - Houston/Executive Ar, TX, US

Updated at: 0900 UTC 13 Aug 2022
Potential Impact None Slight Moderate High
Time 12/21Z 12/22Z 12/23Z 13/00Z 13/01Z 13/02Z 13/03Z 13/04Z 13/05Z 13/06Z 13/07Z 13/08Z 13/09Z
Temp95 81 81 81 81 81 81 81 79 79 77 77 77
Dewpt70 77 79 79 77 79 79 79 79 79 77 77 77
Altim29.93 29.95 29.94 29.94 29.94 29.95 29.97 29.99 29.98 29.98 29.98 29.97 29.98
VIS8 2.5 4 4 6 8 7 7 6 5 2.5 3 3
CIG65 50 -- -- -- -- -- -- -- -- -- -- --
CoverBKNBKNFEWCLRFEWFEWCLRCLRCLRCLRCLRFEWCLR
FltCatVFRIFRMVFRMVFRVFRVFRVFRVFRVFRMVFRIFRMVFRMVFR
WX---DZ-DZ-DZBR------BRBRBRBRBR
WDir90220210000000003600
WSpd8 4 7 0 0 0 0 0 0 0 0 3 0
WGst-- -- -- -- -- -- -- -- -- -- -- -- --
Raw hourly METARs
KTME 122055Z AUTO 09008KT 060V140 8SM SCT055 BKN065 35/21 A2993 RMK AO2
KTME 122155Z AUTO 22004KT 2 1/2SM -DZ SCT002 SCT026 BKN050 27/25 A2995 RMK AO2 VIS 1 1/2V5
KTME 122255Z AUTO 21007KT 4SM -DZ FEW060 FEW080 27/26 A2994 RMK AO2
KTME 122355Z AUTO 00000KT 4SM -DZ CLR 27/26 A2994 RMK AO2
KTME 130055Z AUTO 00000KT 6SM BR FEW050 27/25 A2994 RMK AO2
KTME 130155Z AUTO 00000KT 8SM FEW050 27/26 A2995 RMK AO2
KTME 130255Z AUTO 00000KT 7SM CLR 27/26 A2997 RMK AO2
KTME 130355Z AUTO 00000KT 7SM CLR 27/26 A2999 RMK AO2
KTME 130455Z AUTO 00000KT 6SM BR CLR 26/26 A2998 RMK AO2
KTME 130555Z AUTO 00000KT 5SM BR CLR 26/26 A2998 RMK AO2
KTME 130655Z AUTO 00000KT 2 1/2SM BR CLR 25/25 A2998 RMK AO2
KTME 130755Z AUTO 36003KT 3SM BR FEW027 25/25 A2997 RMK AO2
KTME 130855Z AUTO 00000KT 3SM BR CLR 25/25 A2998 RMK AO2